Time;durP1;ratioP1;P1;durP2;ratioP2;P2;SDS_P1;SDS_P2;PMS_P1;PMS_P2;Temp;Humidity;BMP_temperature;BMP_pressure;BME280_temperature;BME280_humidity;BME280_pressure;Samples;Min_cycle;Max_cycle;Signal;HPM_P1;HPM_P2
2022/06/07 00:00:19;;;;;;;15.00;9.28;;;;;;;11.87;88.12;94738.98;1698165;84;21296;-56
2022/06/07 00:02:48;;;;;;;15.08;10.50;;;;;;;11.87;87.88;94739.73;1698119;84;21013;-56
2022/06/07 00:05:18;;;;;;;11.45;9.40;;;;;;;11.87;87.87;94745.88;1698140;84;21037;-56
2022/06/07 00:07:47;;;;;;;15.43;9.33;;;;;;;11.90;88.17;94736.06;1698075;84;20985;-56
2022/06/07 00:10:16;;;;;;;15.68;10.48;;;;;;;11.96;88.40;94736.23;1698151;84;21013;-56
2022/06/07 00:12:44;;;;;;;13.00;9.43;;;;;;;12.01;88.27;94735.03;1698320;84;21256;-56
2022/06/07 00:15:15;;;;;;;15.50;10.43;;;;;;;12.07;88.31;94729.06;1698149;84;21418;-55
2022/06/07 00:17:43;;;;;;;17.10;11.25;;;;;;;12.11;88.03;94733.81;1698373;84;21469;-57
2022/06/07 00:20:12;;;;;;;16.70;11.05;;;;;;;12.12;87.92;94733.97;1698229;84;21100;-55
2022/06/07 00:22:42;;;;;;;18.60;10.60;;;;;;;12.14;88.04;94738.44;1697784;84;21020;-56
2022/06/07 00:25:11;;;;;;;15.83;10.10;;;;;;;12.16;88.03;94726.94;1674367;84;21890;-56
2022/06/07 00:27:39;;;;;;;15.83;9.68;;;;;;;12.20;87.61;94724.19;1698319;84;21065;-56
2022/06/07 00:30:08;;;;;;;15.08;10.23;;;;;;;12.24;87.62;94719.28;1698206;84;21068;-57
2022/06/07 00:32:37;;;;;;;20.15;11.10;;;;;;;12.28;87.54;94714.38;1698475;84;21611;-56
2022/06/07 00:35:07;;;;;;;21.97;11.43;;;;;;;12.32;87.44;94710.88;1698247;83;20969;-57
2022/06/07 00:37:36;;;;;;;19.35;10.98;;;;;;;12.32;87.40;94709.50;1698149;84;21450;-56
2022/06/07 00:40:05;;;;;;;13.75;10.28;;;;;;;12.29;87.14;94710.40;1698065;84;20969;-56
2022/06/07 00:42:34;;;;;;;24.47;13.43;;;;;;;12.25;86.99;94710.41;1698283;84;21449;-55
2022/06/07 00:45:02;;;;;;;31.75;15.72;;;;;;;12.19;86.99;94703.95;1697679;84;20985;-56
2022/06/07 00:47:31;;;;;;;16.80;10.40;;;;;;;12.17;86.86;94701.67;1698253;84;21097;-57
2022/06/07 00:50:04;;;;;;;10.00;8.78;;;;;;;12.12;86.82;94703.63;1698209;84;21258;-56
2022/06/07 00:52:34;;;;;;;12.18;8.95;;;;;;;12.07;87.02;94701.48;1698454;84;21411;-55
2022/06/07 00:55:03;;;;;;;11.30;8.80;;;;;;;12.07;87.12;94702.12;1698179;84;21450;-55
2022/06/07 00:57:38;;;;;;;11.65;7.87;;;;;;;12.03;86.85;94693.98;1691851;84;21041;-56
2022/06/07 01:00:10;;;;;;;15.28;8.38;;;;;;;12.03;86.85;94695.36;1692064;84;21505;-57
2022/06/07 01:02:40;;;;;;;16.90;9.45;;;;;;;11.98;86.93;94689.08;1695227;83;21106;-60
2022/06/07 01:05:08;;;;;;;16.62;9.73;;;;;;;11.95;87.31;94694.13;1691805;84;20997;-55
2022/06/07 01:13:15;;;;;;;17.80;9.98;;;;;;;11.79;87.29;94699.91;1691914;84;21009;-56
2022/06/07 01:15:46;;;;;;;13.83;8.83;;;;;;;11.77;87.39;94696.85;1695216;83;21498;-56
2022/06/07 01:18:17;;;;;;;11.50;8.93;;;;;;;11.74;87.32;94696.36;1695449;84;20970;-56
2022/06/07 01:20:45;;;;;;;11.30;9.13;;;;;;;11.70;87.44;94697.13;1692300;84;20973;-56
2022/06/07 01:23:13;;;;;;;11.55;8.88;;;;;;;11.67;87.70;94698.03;1691834;84;20997;-57
2022/06/07 01:25:42;;;;;;;12.43;7.95;;;;;;;11.65;87.67;94693.59;1691882;84;21008;-56
2022/06/07 01:28:10;;;;;;;11.35;8.20;;;;;;;11.59;87.93;94688.53;1692340;84;21298;-55
2022/06/07 01:30:39;;;;;;;12.73;9.10;;;;;;;11.57;88.40;94695.70;1691739;84;21496;-57
2022/06/07 01:33:08;;;;;;;15.88;9.28;;;;;;;11.57;88.67;94696.45;1692185;84;21073;-57
2022/06/07 01:35:36;;;;;;;17.42;9.18;;;;;;;11.57;88.89;94693.70;1692310;84;21474;-56
2022/06/07 01:38:04;;;;;;;12.30;9.08;;;;;;;11.59;88.93;94693.27;1672248;84;20981;-57
2022/06/07 01:43:18;;;;;;;12.63;8.35;;;;;;;11.52;87.71;94690.14;1691922;84;21486;-56
2022/06/07 01:45:47;;;;;;;10.40;8.35;;;;;;;11.51;87.88;94684.48;1692095;84;21029;-57
2022/06/07 01:48:16;;;;;;;12.15;8.75;;;;;;;11.49;87.64;94694.44;1691909;84;21095;-55
2022/06/07 01:50:44;;;;;;;10.78;8.28;;;;;;;11.45;87.56;94686.30;1691960;84;20994;-55
2022/06/07 01:53:12;;;;;;;11.03;9.73;;;;;;;11.43;87.71;94693.48;1694981;84;21205;-56
2022/06/07 01:55:40;;;;;;;11.50;7.87;;;;;;;11.42;87.62;94696.08;1691884;84;20970;-57
2022/06/07 01:58:11;;;;;;;8.33;7.47;;;;;;;11.38;87.56;94687.94;1698151;84;21120;-56
2022/06/07 02:00:39;;;;;;;11.08;7.87;;;;;;;11.41;87.44;94684.30;1698250;84;21065;-57
2022/06/07 02:03:07;;;;;;;8.45;7.45;;;;;;;11.42;87.15;94685.06;1674693;84;21492;-56
2022/06/07 02:05:35;;;;;;;8.60;7.67;;;;;;;11.41;87.14;94691.79;1674721;84;21800;-56
2022/06/07 02:08:05;;;;;;;8.48;7.67;;;;;;;11.41;86.79;94690.41;1697965;84;21489;-56
2022/06/07 02:10:35;;;;;;;11.50;7.17;;;;;;;11.31;86.57;94690.23;1698269;84;21009;-56
2022/06/07 02:13:05;;;;;;;10.72;7.53;;;;;;;11.23;86.76;94688.36;1698739;83;20984;-56
2022/06/07 02:15:34;;;;;;;10.18;6.80;;;;;;;11.18;87.32;94690.31;1697929;84;21417;-55
2022/06/07 02:18:03;;;;;;;11.08;6.90;;;;;;;11.17;87.91;94689.40;1698181;84;21173;-56
2022/06/07 02:20:48;;;;;;;12.65;7.17;;;;;;;11.15;87.65;94691.22;1697649;84;21084;-55
2022/06/07 02:23:17;;;;;;;8.75;7.45;;;;;;;11.12;87.43;94690.75;1698395;84;20973;-56
2022/06/07 02:25:48;;;;;;;7.70;6.62;;;;;;;11.10;87.50;94682.17;1698125;84;20973;-57
2022/06/07 02:28:18;;;;;;;11.83;7.45;;;;;;;11.11;87.23;94689.22;1698285;84;21126;-56
2022/06/07 02:30:47;;;;;;;9.60;7.37;;;;;;;11.09;86.98;94693.63;1698045;84;21267;-56
2022/06/07 02:33:15;;;;;;;12.13;7.00;;;;;;;11.10;87.20;94695.94;1697933;84;21005;-56
2022/06/07 02:35:45;;;;;;;10.65;7.75;;;;;;;11.12;87.41;94699.01;1698061;84;21021;-56
2022/06/07 02:38:14;;;;;;;8.88;7.53;;;;;;;11.13;87.51;94697.78;1698141;83;21013;-57
2022/06/07 02:40:42;;;;;;;12.37;8.03;;;;;;;11.09;87.56;94704.64;1655609;86;21020;-56
2022/06/07 02:43:12;;;;;;;10.20;7.72;;;;;;;11.02;87.70;94703.54;1635562;86;21894;-57
2022/06/07 02:45:40;;;;;;;8.35;7.25;;;;;;;10.98;87.92;94698.16;1623502;88;21041;-57
2022/06/07 02:48:09;;;;;;;7.28;6.60;;;;;;;10.97;87.90;94701.38;1619441;87;21099;-56
2022/06/07 02:50:39;;;;;;;11.90;7.65;;;;;;;10.95;87.94;94708.70;1623864;88;21048;-56
2022/06/07 02:53:08;;;;;;;21.15;8.53;;;;;;;10.97;88.07;94702.13;1623611;88;21576;-57
2022/06/07 02:55:36;;;;;;;13.98;9.68;;;;;;;10.99;87.98;94706.58;1623797;87;21141;-56
2022/06/07 02:58:08;;;;;;;15.32;9.68;;;;;;;10.97;87.85;94703.51;1623483;87;21536;-57
2022/06/07 03:00:37;;;;;;;25.43;13.03;;;;;;;10.99;88.18;94705.82;1598559;88;21779;-55
2022/06/07 03:03:07;;;;;;;22.05;12.75;;;;;;;11.01;87.98;94706.14;1623882;88;21163;-57
2022/06/07 03:05:38;;;;;;;17.17;10.60;;;;;;;10.99;87.65;94707.95;1599725;88;21054;-57
2022/06/07 03:08:08;;;;;;;17.45;9.88;;;;;;;11.00;87.84;94712.23;1623611;88;21815;-56
2022/06/07 03:10:38;;;;;;;15.18;9.55;;;;;;;11.04;87.70;94708.77;1623720;88;21048;-56
2022/06/07 03:13:07;;;;;;;16.55;10.15;;;;;;;11.06;87.46;94711.05;1623632;88;21104;-57
2022/06/07 03:15:36;;;;;;;16.97;10.43;;;;;;;11.04;87.46;94714.27;1623782;88;21133;-56
2022/06/07 03:18:07;;;;;;;18.42;10.28;;;;;;;11.07;87.88;94717.49;1598917;88;21104;-56
2022/06/07 03:20:41;;;;;;;18.37;11.08;;;;;;;11.10;87.65;94715.81;1623372;88;21389;-56
2022/06/07 03:23:09;;;;;;;15.35;9.48;;;;;;;11.06;87.44;94709.08;1623541;88;21021;-57
2022/06/07 03:25:38;;;;;;;15.15;7.80;;;;;;;11.04;87.39;94711.52;1623643;87;21202;-56
2022/06/07 03:28:08;;;;;;;14.18;8.85;;;;;;;11.06;87.51;94717.34;1623638;88;21073;-56
2022/06/07 03:30:36;;;;;;;15.00;9.13;;;;;;;11.12;87.66;94722.41;1623650;88;21144;-58
2022/06/07 03:33:06;;;;;;;12.13;8.63;;;;;;;11.15;87.80;94716.63;1623656;88;21165;-56
2022/06/07 03:35:34;;;;;;;12.20;8.13;;;;;;;11.23;88.01;94717.27;1623910;88;21001;-55
2022/06/07 03:38:04;;;;;;;13.08;9.25;;;;;;;11.33;87.95;94713.33;1623725;88;21533;-59
2022/06/07 03:40:43;;;;;;;18.17;9.90;;;;;;;11.40;87.66;94716.42;1619724;88;20997;-56
2022/06/07 03:43:12;;;;;;;21.80;10.28;;;;;;;11.39;87.47;94710.13;1619997;88;21517;-56
2022/06/07 03:45:40;;;;;;;18.57;9.85;;;;;;;11.41;87.53;94710.47;1623854;88;21129;-55
2022/06/07 03:48:11;;;;;;;12.95;9.70;;;;;;;11.39;87.65;94707.38;1623564;88;21429;-56
2022/06/07 03:50:39;;;;;;;15.53;8.63;;;;;;;11.43;87.97;94712.16;1619820;88;21009;-56
2022/06/07 03:53:11;;;;;;;16.05;8.63;;;;;;;11.55;88.14;94709.89;1623578;88;21044;-56
2022/06/07 03:55:47;;;;;;;12.50;8.05;;;;;;;11.72;88.35;94711.20;1619669;88;21053;-56
2022/06/07 03:58:15;;;;;;;12.68;7.97;;;;;;;11.91;88.01;94701.77;1636083;87;21174;-56
2022/06/07 04:00:45;;;;;;;17.70;9.23;;;;;;;12.14;87.66;94694.91;1638190;87;21011;-56
2022/06/07 04:03:13;;;;;;;14.00;10.50;;;;;;;12.35;87.05;94692.03;1638444;87;21086;-56
2022/06/07 04:05:45;;;;;;;13.62;9.10;;;;;;;12.50;85.96;94699.86;1638174;87;21043;-57
2022/06/07 04:08:15;;;;;;;11.68;7.42;;;;;;;12.58;85.23;94689.42;1638304;87;21047;-56
2022/06/07 04:11:00;;;;;;;9.28;7.08;;;;;;;12.66;84.73;94685.71;1638055;87;21170;-56
2022/06/07 04:13:43;;;;;;;8.08;6.75;;;;;;;12.76;83.93;94688.63;1636690;87;20992;-56
2022/06/07 04:16:13;;;;;;;12.50;7.42;;;;;;;12.86;83.45;94688.78;1638192;87;21019;-56
2022/06/07 04:18:43;;;;;;;10.98;7.45;;;;;;;12.96;83.31;94683.41;1638050;87;21055;-55
2022/06/07 04:21:12;;;;;;;11.57;7.05;;;;;;;13.07;82.64;94683.07;1638623;87;21038;-55
2022/06/07 04:23:40;;;;;;;13.98;6.78;;;;;;;13.15;81.91;94679.38;1638293;87;21260;-56
2022/06/07 04:26:15;;;;;;;10.08;6.40;;;;;;;13.17;81.32;94678.28;1638419;87;20999;-56
2022/06/07 04:28:44;;;;;;;14.85;7.40;;;;;;;13.22;80.90;94670.74;1637980;87;21483;-55
2022/06/07 04:31:18;;;;;;;12.88;8.40;;;;;;;13.23;80.61;94669.53;1638673;87;21047;-57
2022/06/07 04:33:46;;;;;;;10.03;6.47;;;;;;;13.23;80.50;94667.52;1617789;87;21478;-55
2022/06/07 04:36:22;;;;;;;10.90;6.55;;;;;;;13.29;80.42;94667.66;1638675;87;21788;-56
2022/06/07 04:42:57;;;;;;;10.88;6.53;;;;;;;13.43;79.84;94665.63;1657125;82;21601;-54
2022/06/07 04:45:31;;;;;;;12.15;7.17;;;;;;;13.51;79.39;94665.42;1629985;87;21116;-55
2022/06/07 04:48:10;;;;;;;;;;;;;;;13.57;79.09;94677.36;1613929;88;21034;-54
2022/06/07 04:50:40;;;;;;;12.60;7.00;;;;;;;13.62;78.52;94668.45;1624379;86;21144;-55
2022/06/07 04:53:09;;;;;;;11.15;7.15;;;;;;;13.67;78.24;94667.80;1596196;88;21002;-56
2022/06/07 04:55:38;;;;;;;9.95;6.97;;;;;;;13.73;77.99;94672.84;1606528;89;21025;-56
2022/06/07 04:58:08;;;;;;;16.42;6.50;;;;;;;13.76;77.61;94670.51;1606733;89;21017;-56
2022/06/07 05:00:36;;;;;;;9.55;6.62;;;;;;;13.73;77.16;94666.70;1605652;88;21565;-56
2022/06/07 05:03:05;;;;;;;14.85;6.65;;;;;;;13.73;77.08;94664.54;1629383;87;21116;-54
2022/06/07 05:05:35;;;;;;;14.85;6.65;;;;;;;13.78;77.15;94665.30;1630831;86;21069;-57
2022/06/07 05:08:06;;;;;;;9.45;6.08;;;;;;;13.81;77.09;94658.83;1629191;87;21089;-57
2022/06/07 05:10:34;;;;;;;9.25;5.60;;;;;;;13.95;77.03;94662.25;1631968;87;21437;-56
2022/06/07 05:13:04;;;;;;;8.85;5.50;;;;;;;14.09;76.70;94663.72;1638733;87;21085;-57
2022/06/07 05:15:35;;;;;;;10.67;5.80;;;;;;;14.27;75.95;94657.30;1632729;86;21481;-57
2022/06/07 05:18:07;;;;;;;7.83;5.42;;;;;;;14.46;75.71;94659.47;1617481;85;21161;-57
2022/06/07 05:20:37;;;;;;;9.33;5.28;;;;;;;14.62;75.15;94663.94;1627152;87;21120;-56
2022/06/07 05:23:07;;;;;;;8.45;5.40;;;;;;;14.73;74.65;94664.76;1606495;87;21582;-57
2022/06/07 05:25:35;;;;;;;9.70;6.00;;;;;;;14.83;74.20;94664.20;1629417;87;21584;-57
2022/06/07 05:28:04;;;;;;;7.62;6.62;;;;;;;14.89;73.87;94666.47;1638606;87;21158;-58
2022/06/07 05:30:34;;;;;;;77.50;39.40;;;;;;;14.94;73.29;94664.41;1610399;87;21176;-58
2022/06/07 05:33:13;;;;;;;15.03;9.48;;;;;;;15.03;72.87;94670.48;1611795;87;21034;-57
2022/06/07 05:35:49;;;;;;;8.03;6.00;;;;;;;15.19;72.51;94667.98;1637437;87;21033;-58
2022/06/07 05:38:21;;;;;;;12.93;9.15;;;;;;;15.29;71.93;94660.36;1605446;87;21049;-57
2022/06/07 05:40:51;;;;;;;12.20;5.47;;;;;;;15.34;71.58;94674.32;1609116;87;21181;-59
2022/06/07 05:43:19;;;;;;;9.40;5.42;;;;;;;15.38;71.42;94668.59;1643796;84;21016;-58
2022/06/07 05:45:53;;;;;;;16.40;12.30;;;;;;;15.44;71.14;94667.44;1623371;86;21036;-58
2022/06/07 05:48:26;;;;;;;8.55;6.33;;;;;;;15.49;71.14;94661.21;1633784;86;21127;-57
2022/06/07 05:50:54;;;;;;;7.55;5.75;;;;;;;15.61;71.35;94656.59;1582198;88;21116;-57
2022/06/07 05:53:25;;;;;;;6.05;5.45;;;;;;;15.75;71.12;94656.55;1597392;86;21279;-61
2022/06/07 05:55:55;;;;;;;8.78;5.55;;;;;;;15.95;70.67;94657.23;1583696;86;21064;-58
2022/06/07 05:58:25;;;;;;;8.30;5.33;;;;;;;16.14;70.10;94654.33;1610848;86;20992;-59
2022/06/07 06:00:56;;;;;;;11.88;6.05;;;;;;;16.33;69.80;94641.84;1634784;86;21168;-59
2022/06/07 06:03:26;;;;;;;19.60;10.18;;;;;;;16.55;69.34;94644.16;1568334;89;21158;-58
2022/06/07 06:05:55;;;;;;;6.22;5.50;;;;;;;16.73;69.06;94641.83;1583536;89;21199;-57
2022/06/07 06:11:15;;;;;;;7.72;5.25;;;;;;;17.01;67.15;94639.33;1611796;88;21119;-60
2022/06/07 06:13:45;;;;;;;5.50;5.00;;;;;;;17.08;66.79;94637.52;1608332;88;21071;-59
2022/06/07 06:16:18;;;;;;;8.55;4.92;;;;;;;17.14;66.46;94627.98;1580755;88;21092;-58
2022/06/07 06:18:52;;;;;;;8.50;5.15;;;;;;;17.19;66.22;94624.48;1607238;87;21169;-59
2022/06/07 06:21:22;;;;;;;10.60;7.33;;;;;;;17.26;66.13;94623.27;1615481;87;21117;-62
2022/06/07 06:23:52;;;;;;;10.88;5.45;;;;;;;17.33;66.15;94618.64;1576222;88;21025;-55
2022/06/07 06:26:20;;;;;;;10.43;5.20;;;;;;;17.39;65.62;94616.69;1588272;88;21631;-57
2022/06/07 06:28:50;;;;;;;10.08;5.40;;;;;;;17.48;65.23;94613.09;1608239;88;21122;-57
2022/06/07 06:31:18;;;;;;;16.27;6.15;;;;;;;17.58;65.04;94609.50;1598304;87;22167;-57
2022/06/07 06:33:49;;;;;;;9.98;6.00;;;;;;;17.68;64.95;94610.84;1600536;88;21058;-57
2022/06/07 06:36:23;;;;;;;8.48;6.25;;;;;;;17.76;64.76;94606.33;1572683;88;21044;-57
2022/06/07 06:38:53;;;;;;;7.17;5.42;;;;;;;17.85;64.57;94603.36;1577637;89;21335;-60
2022/06/07 06:41:27;;;;;;;6.97;5.58;;;;;;;17.94;64.38;94596.19;1567711;89;21162;-62
2022/06/07 06:44:00;;;;;;;7.40;5.00;;;;;;;18.04;63.82;94601.05;1593415;86;21455;-61
2022/06/07 06:46:35;;;;;;;6.70;5.35;;;;;;;18.18;63.35;94598.72;1589777;88;21040;-59
2022/06/07 06:49:03;;;;;;;15.65;5.37;;;;;;;18.28;63.22;94592.47;1588687;88;21063;-58
2022/06/07 06:51:33;;;;;;;6.15;4.37;;;;;;;18.38;62.88;94597.19;1600708;88;21152;-57
2022/06/07 06:54:01;;;;;;;5.40;4.78;;;;;;;18.47;61.96;94590.77;1608632;88;21048;-57
2022/06/07 06:56:34;;;;;;;6.78;4.40;;;;;;;18.56;61.62;94586.38;1587909;88;21130;-58
2022/06/07 06:59:04;;;;;;;6.80;4.58;;;;;;;18.72;61.48;94586.27;1592050;88;21086;-60
2022/06/07 07:01:35;;;;;;;6.20;4.25;;;;;;;18.87;61.37;94587.56;1594421;88;21419;-57
2022/06/07 07:04:06;;;;;;;14.55;4.70;;;;;;;19.03;60.47;94588.23;1591023;88;21541;-60
2022/06/07 07:06:34;;;;;;;9.33;4.45;;;;;;;19.14;60.06;94584.06;1586416;88;21104;-65
2022/06/07 07:09:03;;;;;;;4.87;3.92;;;;;;;19.24;59.54;94584.61;1594792;88;21264;-64
2022/06/07 07:11:38;;;;;;;6.58;4.50;;;;;;;19.37;58.51;94578.64;1602226;88;21064;-64
2022/06/07 07:14:08;;;;;;;4.58;3.80;;;;;;;19.51;57.87;94581.81;1602372;88;21043;-62
2022/06/07 07:16:44;;;;;;;5.60;4.20;;;;;;;19.62;57.14;94579.02;1579883;90;21544;-62
2022/06/07 07:19:12;;;;;;;5.90;4.20;;;;;;;19.73;57.25;94577.59;1589684;88;21100;-58
2022/06/07 07:21:45;;;;;;;7.28;4.20;;;;;;;19.87;57.09;94575.78;1587761;90;21978;-58
2022/06/07 07:24:17;;;;;;;5.08;4.37;;;;;;;19.99;56.81;94578.06;1561536;88;21172;-56
2022/06/07 07:26:47;;;;;;;5.40;4.65;;;;;;;20.13;56.88;94572.81;1582201;88;26471;-59
2022/06/07 07:29:19;;;;;;;12.33;4.70;;;;;;;20.31;56.43;94572.25;1588070;88;21112;-58
2022/06/07 07:31:47;;;;;;;14.87;11.87;;;;;;;20.48;56.05;94560.36;1594581;88;21080;-58
2022/06/07 07:34:17;;;;;;;10.10;5.00;;;;;;;20.65;55.42;94559.63;1588657;89;21172;-58
2022/06/07 07:36:49;;;;;;;6.62;4.75;;;;;;;20.83;55.44;94559.83;1559461;90;21044;-58
2022/06/07 07:39:19;;;;;;;5.40;4.90;;;;;;;21.03;55.91;94558.03;1592849;88;21190;-60
2022/06/07 07:41:49;;;;;;;14.03;4.80;;;;;;;21.22;56.59;94551.14;1567337;88;21082;-58
2022/06/07 07:44:17;;;;;;;12.43;4.40;;;;;;;21.36;56.07;94557.80;1595248;88;21101;-59
2022/06/07 07:46:48;;;;;;;5.42;3.40;;;;;;;21.47;54.73;94555.53;1576003;88;21210;-62
2022/06/07 07:49:18;;;;;;;4.00;3.60;;;;;;;21.59;54.66;94553.51;1570892;89;21031;-58
2022/06/07 07:51:48;;;;;;;3.67;3.35;;;;;;;21.73;54.47;94556.59;1583778;88;21073;-62
2022/06/07 07:54:20;;;;;;;4.70;3.70;;;;;;;21.85;54.14;94546.78;1555110;88;21354;-62
2022/06/07 07:56:48;;;;;;;6.87;3.20;;;;;;;21.99;54.11;94546.28;1578868;89;21652;-58
2022/06/07 07:59:20;;;;;;;4.00;3.60;;;;;;;22.10;54.03;94553.25;1587447;88;21214;-58
2022/06/07 08:01:49;;;;;;;3.95;3.47;;;;;;;22.18;54.26;94549.22;1577769;90;21097;-60
2022/06/07 08:04:17;;;;;;;8.20;3.17;;;;;;;22.29;52.68;94551.25;1576504;88;21104;-61
2022/06/07 08:06:47;;;;;;;10.35;3.92;;;;;;;22.36;51.43;94549.27;1576893;88;21151;-57
2022/06/07 08:09:17;;;;;;;3.10;2.80;;;;;;;22.47;51.62;94548.41;1558106;90;21667;-57
2022/06/07 08:11:45;;;;;;;3.20;3.00;;;;;;;22.62;51.75;94535.45;1578895;88;21842;-56
2022/06/07 08:14:15;;;;;;;4.50;3.00;;;;;;;22.76;51.18;94534.23;1596245;88;21046;-60
2022/06/07 08:16:44;;;;;;;3.85;2.85;;;;;;;22.89;50.92;94538.52;1589959;87;21531;-57
2022/06/07 08:19:12;;;;;;;3.22;2.67;;;;;;;22.99;51.78;94534.02;1578785;88;21153;-58
2022/06/07 08:21:40;;;;;;;10.18;3.12;;;;;;;23.10;49.53;94529.66;1551871;90;21111;-58
2022/06/07 08:24:08;;;;;;;3.80;2.60;;;;;;;23.23;48.99;94535.33;1578646;89;21944;-59
2022/06/07 08:26:38;;;;;;;2.75;2.37;;;;;;;23.36;47.04;94533.98;1577019;88;21048;-60
2022/06/07 08:29:06;;;;;;;2.60;2.40;;;;;;;23.46;45.45;94530.13;1596631;88;21607;-62
2022/06/07 08:31:34;;;;;;;2.85;2.65;;;;;;;23.55;46.19;94523.45;1580085;88;21081;-61
2022/06/07 08:39:35;;;;;;;7.17;4.03;;;;;;;23.79;47.81;94516.24;1577500;88;21092;-59
2022/06/07 08:42:16;;;;;;;6.15;3.08;;;;;;;23.84;46.82;94515.44;1579441;88;21112;-60
2022/06/07 08:45:05;;;;;;;5.00;2.98;;;;;;;23.93;47.11;94510.03;1564790;90;21078;-61
2022/06/07 08:47:46;;;;;;;8.55;3.80;;;;;;;24.03;45.39;94513.28;1585884;87;21097;-62
2022/06/07 08:50:31;;;;;;;5.40;3.10;;;;;;;24.13;46.16;94512.94;1575816;89;21600;-62
2022/06/07 08:53:04;;;;;;;2.95;2.65;;;;;;;24.26;45.40;94507.33;1561280;89;21052;-63
2022/06/07 08:55:36;;;;;;;5.80;2.75;;;;;;;24.37;45.60;94503.63;1559501;88;21734;-60
2022/06/07 08:58:26;;;;;;;4.72;2.58;;;;;;;24.48;46.06;94509.67;1584992;88;21486;-60
2022/06/07 09:01:03;;;;;;;3.33;2.60;;;;;;;24.54;43.95;94504.07;1613412;87;21005;-59
2022/06/07 09:03:57;;;;;;;2.67;2.47;;;;;;;24.62;45.06;94498.54;1567753;89;21171;-61
2022/06/07 09:06:28;;;;;;;3.67;2.27;;;;;;;24.74;44.25;94492.78;1558950;88;21307;-61
2022/06/07 09:08:57;;;;;;;4.28;3.10;;;;;;;24.87;44.76;94487.09;1579460;88;21144;-63
2022/06/07 09:14:43;;;;;;;3.08;2.55;;;;;;;25.06;42.52;94482.81;1569307;88;22276;-58
2022/06/07 09:17:14;;;;;;;3.20;2.52;;;;;;;25.08;41.40;94480.20;1579964;90;21109;-67
2022/06/07 09:19:42;;;;;;;6.17;2.40;;;;;;;25.09;41.96;94474.67;1578622;88;21099;-62
2022/06/07 09:22:25;;;;;;;2.70;2.50;;;;;;;25.16;43.75;94476.05;1557540;90;21674;-67
2022/06/07 09:25:07;;;;;;;5.15;2.58;;;;;;;25.22;41.67;94469.66;1579443;89;21084;-57
2022/06/07 09:27:36;;;;;;;2.08;1.98;;;;;;;25.26;40.69;94470.06;1560609;90;21106;-59
2022/06/07 09:30:21;;;;;;;3.90;2.20;;;;;;;25.31;41.66;94460.74;1557612;88;21143;-58
2022/06/07 09:32:50;;;;;;;5.08;2.37;;;;;;;25.37;40.34;94462.76;1557758;90;21072;-63
2022/06/07 09:35:34;;;;;;;10.48;2.35;;;;;;;25.41;40.00;94457.52;1590601;88;21570;-62
2022/06/07 09:38:06;;;;;;;4.37;2.47;;;;;;;25.41;39.87;94463.93;1541924;91;21157;-60
2022/06/07 09:40:36;;;;;;;;;;;;;;;25.53;41.40;94453.13;1594673;87;21164;-62
2022/06/07 09:43:19;;;;;;;4.85;2.30;;;;;;;25.65;39.41;94448.72;1603975;88;21153;-61
2022/06/07 09:46:08;;;;;;;2.00;1.90;;;;;;;25.76;38.76;94449.81;1582330;88;21496;-58
2022/06/07 09:48:43;;;;;;;6.55;3.20;;;;;;;25.84;36.93;94437.95;1591964;88;21123;-61
2022/06/07 09:51:19;;;;;;;3.10;2.80;;;;;;;25.85;37.19;94442.31;1559026;88;21068;-61
2022/06/07 09:53:57;;;;;;;3.55;2.50;;;;;;;25.88;36.64;94436.30;1578905;89;21385;-59
2022/06/07 09:56:42;;;;;;;3.83;1.87;;;;;;;25.94;36.04;94436.25;1578257;88;21402;-58
2022/06/07 09:59:53;;;;;;;4.50;2.33;;;;;;;25.93;34.77;94437.56;1581162;88;21084;-59
2022/06/07 10:02:51;;;;;;;2.25;2.08;;;;;;;25.93;37.38;94434.64;1591406;88;21042;-63
2022/06/07 10:05:42;;;;;;;2.42;2.10;;;;;;;26.05;36.35;94434.54;1577314;88;21074;-62
2022/06/07 10:08:28;;;;;;;3.55;1.90;;;;;;;26.17;36.71;94438.56;1578722;88;21070;-64
2022/06/07 10:11:27;;;;;;;3.25;2.10;;;;;;;26.26;36.51;94425.34;1579790;89;21645;-62
2022/06/07 10:14:28;;;;;;;2.42;2.00;;;;;;;26.34;36.19;94423.29;1592954;88;21036;-60
2022/06/07 10:17:24;;;;;;;3.72;1.92;;;;;;;26.42;35.21;94426.15;1578192;90;21049;-62
2022/06/07 10:20:23;;;;;;;2.17;1.98;;;;;;;26.50;36.16;94419.25;1579217;88;21093;-59
2022/06/07 10:23:02;;;;;;;2.00;1.90;;;;;;;26.65;35.30;94412.25;1579507;88;21045;-60
2022/06/07 10:25:46;;;;;;;2.52;1.90;;;;;;;26.82;34.15;94408.25;1578616;88;21192;-60
2022/06/07 10:28:34;;;;;;;17.10;12.68;;;;;;;26.95;33.32;94409.52;1578103;89;21531;-62
2022/06/07 10:31:19;;;;;;;4.15;3.08;;;;;;;27.03;33.26;94403.20;1561371;88;21045;-61
2022/06/07 10:33:59;;;;;;;2.27;2.02;;;;;;;27.24;36.29;94408.05;1554042;90;21039;-59
2022/06/07 10:36:57;;;;;;;3.58;1.65;;;;;;;27.53;34.18;94398.08;1572578;90;21084;-63
2022/06/07 10:39:48;;;;;;;4.55;1.80;;;;;;;27.84;33.91;94393.94;1582510;88;21093;-59
2022/06/07 10:42:52;;;;;;;2.50;2.10;;;;;;;28.14;34.06;94396.66;1587290;90;21044;-60
2022/06/07 10:45:27;;;;;;;;;;;;;;;28.43;32.75;94390.84;1566642;90;21079;-61
2022/06/07 10:48:11;;;;;;;2.45;1.70;;;;;;;28.71;31.77;94395.52;1559000;92;20223;-60
2022/06/07 10:50:58;;;;;;;2.77;1.57;;;;;;;28.96;31.22;94385.69;1600125;88;21093;-61
2022/06/07 10:53:41;;;;;;;1.27;1.17;;;;;;;29.23;30.91;94383.79;1593652;88;21835;-61
2022/06/07 10:56:17;;;;;;;;;;;;;;;29.43;30.17;94376.36;1620204;87;21033;-60
2022/06/07 10:58:53;;;;;;;1.85;1.22;;;;;;;29.63;30.01;94372.43;1603049;87;34681;-64
2022/06/07 11:01:32;;;;;;;2.05;1.65;;;;;;;29.83;30.05;94378.39;1617617;88;21049;-60
2022/06/07 11:10:14;;;;;;;2.87;1.60;;;;;;;30.36;30.05;94366.55;1604872;87;21635;-63
2022/06/07 11:13:02;;;;;;;4.33;1.90;;;;;;;30.74;29.13;94370.38;1620003;88;21070;-60
2022/06/07 11:15:53;;;;;;;2.15;1.55;;;;;;;31.06;28.56;94358.06;1619082;87;21043;-60
2022/06/07 11:18:25;;;;;;;2.10;1.32;;;;;;;31.45;28.27;94362.59;1615093;87;21062;-61
2022/06/07 11:21:08;;;;;;;1.75;1.57;;;;;;;31.71;27.06;94361.81;1623721;87;21277;-63
2022/06/07 11:23:46;;;;;;;;;;;;;;;31.94;26.05;94347.91;1616917;87;21104;-72
2022/06/07 11:26:17;;;;;;;2.30;1.95;;;;;;;32.27;27.01;94351.88;1614943;87;20375;-67
2022/06/07 11:28:56;;;;;;;5.85;1.60;;;;;;;32.52;25.84;94356.57;1614925;87;21025;-64
2022/06/07 11:31:40;;;;;;;2.02;1.80;;;;;;;32.82;26.02;94354.55;1614174;87;21518;-61
2022/06/07 11:34:15;;;;;;;1.30;1.20;;;;;;;33.07;24.92;94358.53;1603461;87;21537;-60
2022/06/07 11:36:44;;;;;;;1.52;1.27;;;;;;;33.22;24.82;94348.23;1614431;87;21012;-69
2022/06/07 11:39:31;;;;;;;1.57;1.47;;;;;;;33.44;23.72;94340.47;1621885;87;21069;-57
2022/06/07 11:42:21;;;;;;;4.03;1.50;;;;;;;33.60;22.79;94329.52;1622055;86;21216;-58
2022/06/07 11:45:19;;;;;;;1.52;1.20;;;;;;;33.59;22.77;94330.11;1607725;87;21153;-62
2022/06/07 11:47:56;;;;;;;3.42;1.30;;;;;;;33.68;23.62;94328.63;1591606;88;21260;-61
2022/06/07 11:50:42;;;;;;;5.22;1.32;;;;;;;33.90;22.88;94322.30;1592013;88;21556;-65
2022/06/07 11:53:32;;;;;;;1.30;1.10;;;;;;;34.02;22.51;94328.91;1533174;91;21102;-63
2022/06/07 11:56:32;;;;;;;8.78;1.52;;;;;;;34.04;23.92;94325.42;1579251;88;21937;-60
2022/06/07 11:59:07;;;;;;;1.22;1.12;;;;;;;34.27;24.31;94319.19;1599313;87;21045;-66
2022/06/07 12:01:39;;;;;;;2.50;1.17;;;;;;;34.70;22.25;94317.76;1579879;88;22361;-61
2022/06/07 12:04:36;;;;;;;3.65;1.10;;;;;;;34.93;23.68;94317.84;1594412;88;21049;-61
2022/06/07 12:07:38;;;;;;;1.50;1.32;;;;;;;35.12;22.83;94314.77;1585579;88;21471;-61
2022/06/07 12:10:29;;;;;;;1.72;1.22;;;;;;;35.38;23.69;94313.56;1596689;88;21028;-60
2022/06/07 12:13:16;;;;;;;2.37;1.30;;;;;;;35.51;24.02;94315.81;1605181;88;21085;-59
2022/06/07 12:16:02;;;;;;;2.37;1.95;;;;;;;35.54;22.62;94305.97;1590868;88;21157;-60
2022/06/07 12:18:32;;;;;;;3.75;1.37;;;;;;;35.58;23.88;94303.35;1594036;88;21101;-60
2022/06/07 12:21:06;;;;;;;2.65;1.60;;;;;;;35.51;25.02;94301.50;1600638;88;21446;-61
2022/06/07 12:23:40;;;;;;;5.10;1.50;;;;;;;35.36;25.16;94299.13;1599630;88;21091;-61
2022/06/07 12:26:28;;;;;;;2.50;1.70;;;;;;;35.14;26.96;94294.86;1547619;91;21156;-59
2022/06/07 12:29:02;;;;;;;2.60;1.40;;;;;;;35.06;26.67;94290.75;1606526;88;22596;-61